^^
Meteo Knjazevac Station Historical Data
Daily Summary for January 5, 2021 Units:  Metric    English   Both
Daily Weekly Monthly Yearly Custom
  High: Low: Average:
Temperature: 10.2 °C 9.7 °C 10 °C
Dew Point: 7.1 °C 6.2 °C 6.6 °C
Humidity: 81% 77% 80%
Wind Speed: 3.2km/h 0km/h 1.9km/h
Wind Gust: 11.3km/h - -
Wind- - SW
Pressure: 1016.1 hPa 1015.1 hPa -
Precipitation: 0 mm    
Historical Graphs
 
 
Tabular Data for January 5, 2021
Time Temperature Dew Point Pressure Wind Wind Speed Wind Gust Humidity Rainfall Rate (Hourly) solar Conditions
00:00 10.2 °C 6.3 °C 1016.1 hPa WSW 1.6 km/h 3.2 km/h 77% 0 mm 0 W/m2
00:10 10.2 °C 6.3 °C 1016.1 hPa West 3.2 km/h 4.8 km/h 77% 0 mm 0 W/m2
00:20 9.9 °C 6.3 °C 1016.1 hPa West 1.6 km/h 4.8 km/h 78% 0 mm 0 W/m2
00:30 9.8 °C 6.2 °C 1015.8 hPa Calm   3.2 km/h 78% 0 mm 0 W/m2
00:40 9.8 °C 6.2 °C 1015.8 hPa Calm   3.2 km/h 78% 0 mm 0 W/m2
00:50 9.7 °C 6.2 °C 1015.8 hPa West 3.2 km/h 8 km/h 79% 0 mm 0 W/m2
01:00 9.7 °C 6.2 °C 1015.8 hPa WNW 3.2 km/h 8 km/h 79% 0 mm 0 W/m2
01:10 9.8 °C 6.3 °C 1015.5 hPa NW 1.6 km/h 4.8 km/h 79% 0 mm 0 W/m2
01:20 9.9 °C 6.4 °C 1015.8 hPa NW 1.6 km/h 3.2 km/h 79% 0 mm 0 W/m2
01:30 9.8 °C 6.3 °C 1015.5 hPa West 1.6 km/h 4.8 km/h 79% 0 mm 0 W/m2
01:40 9.8 °C 6.5 °C 1015.5 hPa Calm   4.8 km/h 80% 0 mm 0 W/m2
01:50 9.8 °C 6.5 °C 1015.5 hPa West 1.6 km/h 3.2 km/h 80% 0 mm 0 W/m2
02:00 9.9 °C 6.6 °C 1015.1 hPa North 3.2 km/h 4.8 km/h 80% 0 mm 0 W/m2
02:10 10.1 °C 6.8 °C 1015.1 hPa NE 3.2 km/h 4.8 km/h 80% 0 mm 0 W/m2
02:20 10.2 °C 6.9 °C 1015.1 hPa North 1.6 km/h 8 km/h 80% 0 mm 0 W/m2
02:30 10.1 °C 6.8 °C 1015.1 hPa West 3.2 km/h 11.3 km/h 80% 0 mm 0 W/m2
02:40 10.1 °C 6.8 °C 1015.1 hPa West 3.2 km/h 8 km/h 80% 0 mm 0 W/m2
02:50 10.2 °C 6.9 °C 1015.1 hPa Calm   8 km/h 80% 0 mm 0 W/m2
03:00 10.2 °C 6.9 °C 1015.1 hPa Calm   3.2 km/h 80% 0 mm 0 W/m2
03:10 10.2 °C 7.1 °C 1015.1 hPa NNE 3.2 km/h 6.4 km/h 81% 0 mm 0 W/m2
03:20 10.1 °C 6.8 °C 1015.1 hPa NNE 3.2 km/h 8 km/h 80% 0 mm 0 W/m2
03:30 10.1 °C 6.8 °C 1015.1 hPa North 1.6 km/h 4.8 km/h 80% 0 mm 0 W/m2
03:40 10.1 °C 7 °C 1015.1 hPa WNW 3.2 km/h 4.8 km/h 81% 0 mm 0 W/m2
03:50 10 °C 6.9 °C 1015.1 hPa West 3.2 km/h 4.8 km/h 81% 0 mm 0 W/m2
04:00 10 °C 6.9 °C 1015.1 hPa Calm   4.8 km/h 81% 0 mm 0 W/m2
Knjazevac, Serbia
Compliments of Weather Underground - 2 mb